sensor_id;sensor_type;location;lat;lon;timestamp;P1;durP1;ratioP1;P2;durP2;ratioP2
13048;SDS011;6591;51.446;5.404;2023-03-01T00:01:40;6.47;;;5.13;;
13048;SDS011;6591;51.446;5.404;2023-03-01T00:04:07;7.37;;;5.20;;
13048;SDS011;6591;51.446;5.404;2023-03-01T00:06:34;5.30;;;4.73;;
13048;SDS011;6591;51.446;5.404;2023-03-01T00:09:01;6.03;;;5.30;;
13048;SDS011;6591;51.446;5.404;2023-03-01T00:11:29;6.40;;;5.13;;
13048;SDS011;6591;51.446;5.404;2023-03-01T00:13:59;6.57;;;5.33;;
13048;SDS011;6591;51.446;5.404;2023-03-01T00:16:29;5.50;;;4.70;;
13048;SDS011;6591;51.446;5.404;2023-03-01T00:19:02;7.77;;;5.63;;
13048;SDS011;6591;51.446;5.404;2023-03-01T00:21:29;5.77;;;5.17;;
13048;SDS011;6591;51.446;5.404;2023-03-01T00:23:57;6.27;;;5.33;;
13048;SDS011;6591;51.446;5.404;2023-03-01T00:26:27;5.40;;;4.77;;
13048;SDS011;6591;51.446;5.404;2023-03-01T00:28:56;6.07;;;5.37;;
13048;SDS011;6591;51.446;5.404;2023-03-01T00:31:25;8.30;;;5.77;;
13048;SDS011;6591;51.446;5.404;2023-03-01T00:33:57;6.70;;;4.90;;
13048;SDS011;6591;51.446;5.404;2023-03-01T00:36:33;6.43;;;5.17;;
13048;SDS011;6591;51.446;5.404;2023-03-01T00:39:04;7.20;;;5.43;;
13048;SDS011;6591;51.446;5.404;2023-03-01T00:41:37;5.50;;;5.00;;
13048;SDS011;6591;51.446;5.404;2023-03-01T00:44:04;7.60;;;5.97;;
13048;SDS011;6591;51.446;5.404;2023-03-01T00:46:31;6.97;;;5.30;;
13048;SDS011;6591;51.446;5.404;2023-03-01T00:49:00;8.00;;;5.77;;
13048;SDS011;6591;51.446;5.404;2023-03-01T00:51:28;6.03;;;5.30;;
13048;SDS011;6591;51.446;5.404;2023-03-01T00:53:57;6.80;;;5.50;;
13048;SDS011;6591;51.446;5.404;2023-03-01T00:56:27;7.13;;;5.17;;
13048;SDS011;6591;51.446;5.404;2023-03-01T00:58:56;6.33;;;4.90;;
13048;SDS011;6591;51.446;5.404;2023-03-01T01:01:24;6.00;;;5.07;;
13048;SDS011;6591;51.446;5.404;2023-03-01T01:03:59;7.10;;;5.63;;
13048;SDS011;6591;51.446;5.404;2023-03-01T01:06:32;6.37;;;4.97;;
13048;SDS011;6591;51.446;5.404;2023-03-01T01:09:06;7.33;;;5.13;;
13048;SDS011;6591;51.446;5.404;2023-03-01T01:11:33;7.57;;;5.60;;
13048;SDS011;6591;51.446;5.404;2023-03-01T01:14:02;6.10;;;5.30;;
13048;SDS011;6591;51.446;5.404;2023-03-01T01:16:29;6.40;;;5.63;;
13048;SDS011;6591;51.446;5.404;2023-03-01T01:18:57;6.87;;;5.67;;
13048;SDS011;6591;51.446;5.404;2023-03-01T01:21:25;7.63;;;5.40;;
13048;SDS011;6591;51.446;5.404;2023-03-01T01:23:53;6.10;;;5.47;;
13048;SDS011;6591;51.446;5.404;2023-03-01T01:26:25;7.13;;;5.30;;
13048;SDS011;6591;51.446;5.404;2023-03-01T01:28:55;6.67;;;5.70;;
13048;SDS011;6591;51.446;5.404;2023-03-01T01:31:24;7.63;;;5.70;;
13048;SDS011;6591;51.446;5.404;2023-03-01T01:33:52;5.37;;;4.87;;
13048;SDS011;6591;51.446;5.404;2023-03-01T01:36:20;7.07;;;5.53;;
13048;SDS011;6591;51.446;5.404;2023-03-01T01:38:48;6.07;;;5.07;;
13048;SDS011;6591;51.446;5.404;2023-03-01T01:41:16;6.33;;;5.43;;
13048;SDS011;6591;51.446;5.404;2023-03-01T01:43:45;6.23;;;5.50;;
13048;SDS011;6591;51.446;5.404;2023-03-01T01:46:40;7.00;;;5.87;;
13048;SDS011;6591;51.446;5.404;2023-03-01T01:51:51;6.67;;;5.27;;
13048;SDS011;6591;51.446;5.404;2023-03-01T01:57:22;8.83;;;5.67;;
13048;SDS011;6591;51.446;5.404;2023-03-01T01:59:57;6.30;;;5.00;;
13048;SDS011;6591;51.446;5.404;2023-03-01T02:02:38;8.00;;;6.00;;
13048;SDS011;6591;51.446;5.404;2023-03-01T02:05:12;7.60;;;6.07;;
13048;SDS011;6591;51.446;5.404;2023-03-01T02:07:51;8.97;;;5.80;;
13048;SDS011;6591;51.446;5.404;2023-03-01T02:10:19;6.40;;;5.70;;
13048;SDS011;6591;51.446;5.404;2023-03-01T02:12:51;8.10;;;5.23;;
13048;SDS011;6591;51.446;5.404;2023-03-01T02:15:19;7.10;;;5.23;;
13048;SDS011;6591;51.446;5.404;2023-03-01T02:17:47;6.83;;;6.03;;
13048;SDS011;6591;51.446;5.404;2023-03-01T02:20:23;7.37;;;5.60;;
13048;SDS011;6591;51.446;5.404;2023-03-01T02:23:04;7.23;;;5.80;;
13048;SDS011;6591;51.446;5.404;2023-03-01T02:25:48;5.70;;;5.10;;
13048;SDS011;6591;51.446;5.404;2023-03-01T02:28:37;8.77;;;5.90;;
13048;SDS011;6591;51.446;5.404;2023-03-01T02:31:09;7.80;;;6.40;;
13048;SDS011;6591;51.446;5.404;2023-03-01T02:34:04;9.70;;;6.57;;
13048;SDS011;6591;51.446;5.404;2023-03-01T02:36:38;8.30;;;5.77;;
13048;SDS011;6591;51.446;5.404;2023-03-01T02:39:17;8.47;;;5.50;;
13048;SDS011;6591;51.446;5.404;2023-03-01T02:41:51;8.60;;;6.40;;
13048;SDS011;6591;51.446;5.404;2023-03-01T02:44:22;9.23;;;6.70;;
13048;SDS011;6591;51.446;5.404;2023-03-01T02:46:50;7.50;;;6.70;;
13048;SDS011;6591;51.446;5.404;2023-03-01T02:49:28;7.80;;;6.30;;
13048;SDS011;6591;51.446;5.404;2023-03-01T02:55:16;7.03;;;5.97;;
13048;SDS011;6591;51.446;5.404;2023-03-01T02:57:45;9.40;;;6.60;;
13048;SDS011;6591;51.446;5.404;2023-03-01T03:00:18;8.87;;;6.20;;
13048;SDS011;6591;51.446;5.404;2023-03-01T03:02:52;10.10;;;7.23;;
13048;SDS011;6591;51.446;5.404;2023-03-01T03:05:23;8.43;;;6.50;;
13048;SDS011;6591;51.446;5.404;2023-03-01T03:07:57;9.47;;;6.53;;
13048;SDS011;6591;51.446;5.404;2023-03-01T03:10:32;8.03;;;6.17;;
13048;SDS011;6591;51.446;5.404;2023-03-01T03:13:05;9.23;;;6.60;;
13048;SDS011;6591;51.446;5.404;2023-03-01T03:15:39;8.60;;;6.40;;
13048;SDS011;6591;51.446;5.404;2023-03-01T03:18:12;7.37;;;6.17;;
13048;SDS011;6591;51.446;5.404;2023-03-01T03:20:42;8.53;;;6.37;;
13048;SDS011;6591;51.446;5.404;2023-03-01T03:23:10;8.73;;;6.53;;
13048;SDS011;6591;51.446;5.404;2023-03-01T03:25:40;8.27;;;6.13;;
13048;SDS011;6591;51.446;5.404;2023-03-01T03:28:07;9.43;;;6.97;;
13048;SDS011;6591;51.446;5.404;2023-03-01T03:30:38;8.10;;;6.13;;
13048;SDS011;6591;51.446;5.404;2023-03-01T03:33:07;8.33;;;6.60;;
13048;SDS011;6591;51.446;5.404;2023-03-01T03:35:43;8.90;;;6.27;;
13048;SDS011;6591;51.446;5.404;2023-03-01T03:38:16;8.83;;;6.53;;
13048;SDS011;6591;51.446;5.404;2023-03-01T03:40:47;9.37;;;6.47;;
13048;SDS011;6591;51.446;5.404;2023-03-01T03:43:19;7.03;;;5.30;;
13048;SDS011;6591;51.446;5.404;2023-03-01T03:45:49;7.50;;;5.70;;
13048;SDS011;6591;51.446;5.404;2023-03-01T03:48:17;8.27;;;6.10;;
13048;SDS011;6591;51.446;5.404;2023-03-01T03:50:50;6.90;;;6.13;;
13048;SDS011;6591;51.446;5.404;2023-03-01T03:53:25;9.57;;;6.40;;
13048;SDS011;6591;51.446;5.404;2023-03-01T03:55:54;8.63;;;6.00;;
13048;SDS011;6591;51.446;5.404;2023-03-01T03:58:22;6.83;;;5.80;;
13048;SDS011;6591;51.446;5.404;2023-03-01T04:00:54;8.37;;;6.27;;
13048;SDS011;6591;51.446;5.404;2023-03-01T04:03:24;9.17;;;6.33;;
13048;SDS011;6591;51.446;5.404;2023-03-01T04:05:53;10.47;;;6.03;;
13048;SDS011;6591;51.446;5.404;2023-03-01T04:08:20;6.67;;;5.73;;
13048;SDS011;6591;51.446;5.404;2023-03-01T04:10:50;7.73;;;6.43;;
13048;SDS011;6591;51.446;5.404;2023-03-01T04:13:23;7.90;;;6.20;;
13048;SDS011;6591;51.446;5.404;2023-03-01T04:15:52;7.00;;;5.97;;
13048;SDS011;6591;51.446;5.404;2023-03-01T04:18:21;9.00;;;6.20;;
13048;SDS011;6591;51.446;5.404;2023-03-01T04:20:52;8.33;;;6.57;;
13048;SDS011;6591;51.446;5.404;2023-03-01T04:23:21;10.20;;;5.60;;
13048;SDS011;6591;51.446;5.404;2023-03-01T04:25:52;8.20;;;5.93;;
13048;SDS011;6591;51.446;5.404;2023-03-01T04:30:51;7.47;;;6.47;;
13048;SDS011;6591;51.446;5.404;2023-03-01T04:33:24;7.13;;;6.37;;
13048;SDS011;6591;51.446;5.404;2023-03-01T04:35:52;6.90;;;5.90;;
13048;SDS011;6591;51.446;5.404;2023-03-01T04:38:20;9.10;;;6.07;;
13048;SDS011;6591;51.446;5.404;2023-03-01T04:40:47;8.40;;;6.60;;
13048;SDS011;6591;51.446;5.404;2023-03-01T04:43:14;6.90;;;6.03;;
13048;SDS011;6591;51.446;5.404;2023-03-01T04:45:42;7.33;;;6.23;;
13048;SDS011;6591;51.446;5.404;2023-03-01T04:48:09;8.10;;;6.30;;
13048;SDS011;6591;51.446;5.404;2023-03-01T04:50:36;11.90;;;6.93;;
13048;SDS011;6591;51.446;5.404;2023-03-01T04:53:03;8.90;;;6.30;;
13048;SDS011;6591;51.446;5.404;2023-03-01T04:55:30;8.67;;;6.37;;
13048;SDS011;6591;51.446;5.404;2023-03-01T04:57:58;7.73;;;6.27;;
13048;SDS011;6591;51.446;5.404;2023-03-01T05:00:25;9.03;;;6.50;;
13048;SDS011;6591;51.446;5.404;2023-03-01T05:02:53;8.30;;;6.43;;
13048;SDS011;6591;51.446;5.404;2023-03-01T05:05:31;7.47;;;5.93;;
13048;SDS011;6591;51.446;5.404;2023-03-01T05:08:06;7.87;;;5.63;;
13048;SDS011;6591;51.446;5.404;2023-03-01T05:10:35;7.57;;;6.07;;
13048;SDS011;6591;51.446;5.404;2023-03-01T05:13:02;8.10;;;5.90;;
13048;SDS011;6591;51.446;5.404;2023-03-01T05:15:30;7.20;;;6.07;;
13048;SDS011;6591;51.446;5.404;2023-03-01T05:17:59;8.23;;;6.27;;
13048;SDS011;6591;51.446;5.404;2023-03-01T05:20:27;7.27;;;5.40;;
13048;SDS011;6591;51.446;5.404;2023-03-01T05:22:58;9.03;;;5.77;;
13048;SDS011;6591;51.446;5.404;2023-03-01T05:25:26;7.60;;;6.10;;
13048;SDS011;6591;51.446;5.404;2023-03-01T05:27:53;6.97;;;5.90;;
13048;SDS011;6591;51.446;5.404;2023-03-01T05:30:20;8.33;;;6.20;;
13048;SDS011;6591;51.446;5.404;2023-03-01T05:32:48;7.70;;;6.07;;
13048;SDS011;6591;51.446;5.404;2023-03-01T05:35:23;9.40;;;6.07;;
13048;SDS011;6591;51.446;5.404;2023-03-01T05:37:51;8.60;;;5.63;;
13048;SDS011;6591;51.446;5.404;2023-03-01T05:40:19;7.00;;;5.80;;
13048;SDS011;6591;51.446;5.404;2023-03-01T05:42:54;8.60;;;5.80;;
13048;SDS011;6591;51.446;5.404;2023-03-01T05:45:24;6.50;;;5.57;;
13048;SDS011;6591;51.446;5.404;2023-03-01T05:47:53;8.93;;;6.27;;
13048;SDS011;6591;51.446;5.404;2023-03-01T05:50:22;8.27;;;5.73;;
13048;SDS011;6591;51.446;5.404;2023-03-01T05:52:59;7.00;;;5.50;;
13048;SDS011;6591;51.446;5.404;2023-03-01T05:55:32;7.67;;;5.80;;
13048;SDS011;6591;51.446;5.404;2023-03-01T05:58:02;7.20;;;5.73;;
13048;SDS011;6591;51.446;5.404;2023-03-01T06:00:36;6.87;;;5.33;;
13048;SDS011;6591;51.446;5.404;2023-03-01T06:03:03;7.13;;;5.37;;
13048;SDS011;6591;51.446;5.404;2023-03-01T06:05:30;7.20;;;5.50;;
13048;SDS011;6591;51.446;5.404;2023-03-01T06:08:01;7.60;;;5.87;;
13048;SDS011;6591;51.446;5.404;2023-03-01T06:10:30;7.40;;;5.37;;
13048;SDS011;6591;51.446;5.404;2023-03-01T06:12:57;9.37;;;6.00;;
13048;SDS011;6591;51.446;5.404;2023-03-01T06:15:24;7.00;;;6.23;;
13048;SDS011;6591;51.446;5.404;2023-03-01T06:17:53;6.87;;;5.90;;
13048;SDS011;6591;51.446;5.404;2023-03-01T06:20:25;9.13;;;5.57;;
13048;SDS011;6591;51.446;5.404;2023-03-01T06:22:55;6.00;;;5.03;;
13048;SDS011;6591;51.446;5.404;2023-03-01T06:25:23;7.50;;;5.97;;
13048;SDS011;6591;51.446;5.404;2023-03-01T06:27:53;9.00;;;5.57;;
13048;SDS011;6591;51.446;5.404;2023-03-01T06:30:21;7.33;;;6.20;;
13048;SDS011;6591;51.446;5.404;2023-03-01T06:32:50;9.77;;;6.20;;
13048;SDS011;6591;51.446;5.404;2023-03-01T06:35:18;8.77;;;6.43;;
13048;SDS011;6591;51.446;5.404;2023-03-01T06:37:46;8.70;;;6.03;;
13048;SDS011;6591;51.446;5.404;2023-03-01T06:40:14;9.70;;;6.47;;
13048;SDS011;6591;51.446;5.404;2023-03-01T06:42:43;10.10;;;7.17;;
13048;SDS011;6591;51.446;5.404;2023-03-01T06:45:16;7.50;;;5.83;;
13048;SDS011;6591;51.446;5.404;2023-03-01T06:47:47;9.23;;;5.97;;
13048;SDS011;6591;51.446;5.404;2023-03-01T06:50:15;10.37;;;7.10;;
13048;SDS011;6591;51.446;5.404;2023-03-01T06:52:45;8.03;;;6.37;;
13048;SDS011;6591;51.446;5.404;2023-03-01T06:55:12;10.83;;;7.07;;
13048;SDS011;6591;51.446;5.404;2023-03-01T06:57:39;10.73;;;7.20;;
13048;SDS011;6591;51.446;5.404;2023-03-01T07:00:06;10.80;;;7.27;;
13048;SDS011;6591;51.446;5.404;2023-03-01T07:02:35;9.33;;;6.40;;
13048;SDS011;6591;51.446;5.404;2023-03-01T07:05:02;9.27;;;6.70;;
13048;SDS011;6591;51.446;5.404;2023-03-01T07:07:30;7.90;;;6.37;;
13048;SDS011;6591;51.446;5.404;2023-03-01T07:09:57;10.37;;;7.00;;
13048;SDS011;6591;51.446;5.404;2023-03-01T07:12:24;8.33;;;6.67;;
13048;SDS011;6591;51.446;5.404;2023-03-01T07:14:51;8.73;;;7.00;;
13048;SDS011;6591;51.446;5.404;2023-03-01T07:17:19;10.60;;;6.93;;
13048;SDS011;6591;51.446;5.404;2023-03-01T07:19:46;11.13;;;6.60;;
13048;SDS011;6591;51.446;5.404;2023-03-01T07:22:13;8.40;;;6.40;;
13048;SDS011;6591;51.446;5.404;2023-03-01T07:24:41;7.50;;;6.00;;
13048;SDS011;6591;51.446;5.404;2023-03-01T07:27:08;9.37;;;6.70;;
13048;SDS011;6591;51.446;5.404;2023-03-01T07:29:36;8.17;;;6.33;;
13048;SDS011;6591;51.446;5.404;2023-03-01T07:32:03;8.90;;;7.00;;
13048;SDS011;6591;51.446;5.404;2023-03-01T07:34:33;9.47;;;7.00;;
13048;SDS011;6591;51.446;5.404;2023-03-01T07:37:03;9.67;;;7.27;;
13048;SDS011;6591;51.446;5.404;2023-03-01T07:39:30;9.40;;;7.17;;
13048;SDS011;6591;51.446;5.404;2023-03-01T07:41:57;9.27;;;7.47;;
13048;SDS011;6591;51.446;5.404;2023-03-01T07:44:25;7.57;;;6.30;;
13048;SDS011;6591;51.446;5.404;2023-03-01T07:46:52;7.97;;;6.37;;
13048;SDS011;6591;51.446;5.404;2023-03-01T07:49:22;9.57;;;6.53;;
13048;SDS011;6591;51.446;5.404;2023-03-01T07:51:49;8.60;;;5.97;;
13048;SDS011;6591;51.446;5.404;2023-03-01T07:54:17;8.80;;;6.97;;
13048;SDS011;6591;51.446;5.404;2023-03-01T07:56:45;8.27;;;6.20;;
13048;SDS011;6591;51.446;5.404;2023-03-01T07:59:12;8.53;;;6.47;;
13048;SDS011;6591;51.446;5.404;2023-03-01T08:01:39;8.20;;;6.90;;
13048;SDS011;6591;51.446;5.404;2023-03-01T08:04:07;9.03;;;7.40;;
13048;SDS011;6591;51.446;5.404;2023-03-01T08:06:35;8.80;;;6.73;;
13048;SDS011;6591;51.446;5.404;2023-03-01T08:09:02;10.27;;;7.83;;
13048;SDS011;6591;51.446;5.404;2023-03-01T08:11:30;9.93;;;7.10;;
13048;SDS011;6591;51.446;5.404;2023-03-01T08:13:57;9.30;;;7.37;;
13048;SDS011;6591;51.446;5.404;2023-03-01T08:16:24;9.10;;;6.93;;
13048;SDS011;6591;51.446;5.404;2023-03-01T08:18:51;9.50;;;6.60;;
13048;SDS011;6591;51.446;5.404;2023-03-01T08:21:18;8.53;;;6.20;;
13048;SDS011;6591;51.446;5.404;2023-03-01T08:23:45;8.33;;;6.33;;
13048;SDS011;6591;51.446;5.404;2023-03-01T08:26:19;8.90;;;6.53;;
13048;SDS011;6591;51.446;5.404;2023-03-01T08:28:48;9.33;;;6.47;;
13048;SDS011;6591;51.446;5.404;2023-03-01T08:31:23;6.93;;;6.07;;
13048;SDS011;6591;51.446;5.404;2023-03-01T08:34:04;8.00;;;6.03;;
13048;SDS011;6591;51.446;5.404;2023-03-01T08:36:39;7.10;;;6.20;;
13048;SDS011;6591;51.446;5.404;2023-03-01T08:39:11;7.93;;;5.77;;
13048;SDS011;6591;51.446;5.404;2023-03-01T08:41:43;8.80;;;6.40;;
13048;SDS011;6591;51.446;5.404;2023-03-01T08:44:14;9.23;;;6.23;;
13048;SDS011;6591;51.446;5.404;2023-03-01T08:46:43;8.40;;;6.60;;
13048;SDS011;6591;51.446;5.404;2023-03-01T08:49:15;8.07;;;6.47;;
13048;SDS011;6591;51.446;5.404;2023-03-01T08:51:45;9.50;;;6.53;;
13048;SDS011;6591;51.446;5.404;2023-03-01T08:54:14;7.07;;;6.37;;
13048;SDS011;6591;51.446;5.404;2023-03-01T08:56:45;7.87;;;6.37;;
13048;SDS011;6591;51.446;5.404;2023-03-01T08:59:16;8.23;;;6.50;;
13048;SDS011;6591;51.446;5.404;2023-03-01T09:01:44;8.83;;;6.43;;
13048;SDS011;6591;51.446;5.404;2023-03-01T09:04:14;6.90;;;6.20;;
13048;SDS011;6591;51.446;5.404;2023-03-01T09:06:42;11.20;;;7.50;;
13048;SDS011;6591;51.446;5.404;2023-03-01T09:09:15;8.47;;;6.83;;
13048;SDS011;6591;51.446;5.404;2023-03-01T09:11:44;9.10;;;7.10;;
13048;SDS011;6591;51.446;5.404;2023-03-01T09:14:13;8.50;;;7.07;;
13048;SDS011;6591;51.446;5.404;2023-03-01T09:16:41;9.33;;;7.57;;
13048;SDS011;6591;51.446;5.404;2023-03-01T09:19:08;8.47;;;6.83;;
13048;SDS011;6591;51.446;5.404;2023-03-01T09:21:35;9.60;;;6.80;;
13048;SDS011;6591;51.446;5.404;2023-03-01T09:24:13;9.33;;;7.40;;
13048;SDS011;6591;51.446;5.404;2023-03-01T09:26:42;7.63;;;6.63;;
13048;SDS011;6591;51.446;5.404;2023-03-01T09:29:14;9.57;;;6.47;;
13048;SDS011;6591;51.446;5.404;2023-03-01T09:31:42;10.20;;;7.13;;
13048;SDS011;6591;51.446;5.404;2023-03-01T09:34:10;10.03;;;7.47;;
13048;SDS011;6591;51.446;5.404;2023-03-01T09:36:37;8.00;;;6.70;;
13048;SDS011;6591;51.446;5.404;2023-03-01T09:39:04;9.07;;;7.13;;
13048;SDS011;6591;51.446;5.404;2023-03-01T09:41:42;10.77;;;6.83;;
13048;SDS011;6591;51.446;5.404;2023-03-01T09:53:02;10.63;;;6.60;;
13048;SDS011;6591;51.446;5.404;2023-03-01T10:02:13;7.27;;;6.20;;
13048;SDS011;6591;51.446;5.404;2023-03-01T10:10:31;7.07;;;6.00;;
13048;SDS011;6591;51.446;5.404;2023-03-01T10:13:21;7.27;;;6.17;;
13048;SDS011;6591;51.446;5.404;2023-03-01T10:19:22;8.97;;;7.43;;
13048;SDS011;6591;51.446;5.404;2023-03-01T10:22:03;8.23;;;6.40;;
13048;SDS011;6591;51.446;5.404;2023-03-01T10:24:51;9.23;;;6.30;;
13048;SDS011;6591;51.446;5.404;2023-03-01T10:27:24;7.30;;;6.03;;
13048;SDS011;6591;51.446;5.404;2023-03-01T10:30:12;8.03;;;6.90;;
13048;SDS011;6591;51.446;5.404;2023-03-01T10:33:14;9.57;;;6.90;;
13048;SDS011;6591;51.446;5.404;2023-03-01T10:36:02;7.53;;;6.37;;
13048;SDS011;6591;51.446;5.404;2023-03-01T10:38:30;9.37;;;6.63;;
13048;SDS011;6591;51.446;5.404;2023-03-01T10:41:21;8.93;;;6.30;;
13048;SDS011;6591;51.446;5.404;2023-03-01T10:43:58;9.57;;;7.10;;
13048;SDS011;6591;51.446;5.404;2023-03-01T10:49:17;8.60;;;7.17;;
13048;SDS011;6591;51.446;5.404;2023-03-01T10:51:50;9.77;;;7.20;;
13048;SDS011;6591;51.446;5.404;2023-03-01T10:54:30;9.57;;;7.07;;
13048;SDS011;6591;51.446;5.404;2023-03-01T10:57:00;9.30;;;6.80;;
13048;SDS011;6591;51.446;5.404;2023-03-01T10:59:31;9.20;;;6.90;;
13048;SDS011;6591;51.446;5.404;2023-03-01T11:07:55;8.60;;;7.17;;
13048;SDS011;6591;51.446;5.404;2023-03-01T11:10:28;7.97;;;6.53;;
13048;SDS011;6591;51.446;5.404;2023-03-01T11:15:59;7.07;;;6.30;;
13048;SDS011;6591;51.446;5.404;2023-03-01T11:18:30;7.40;;;6.07;;
13048;SDS011;6591;51.446;5.404;2023-03-01T11:21:13;7.03;;;6.33;;
13048;SDS011;6591;51.446;5.404;2023-03-01T11:23:43;9.63;;;7.23;;
13048;SDS011;6591;51.446;5.404;2023-03-01T11:26:13;9.50;;;7.87;;
13048;SDS011;6591;51.446;5.404;2023-03-01T11:28:43;8.43;;;6.83;;
13048;SDS011;6591;51.446;5.404;2023-03-01T11:31:17;8.33;;;7.17;;
13048;SDS011;6591;51.446;5.404;2023-03-01T11:33:47;8.57;;;7.10;;
13048;SDS011;6591;51.446;5.404;2023-03-01T11:39:03;9.27;;;6.97;;
13048;SDS011;6591;51.446;5.404;2023-03-01T11:41:43;10.03;;;7.03;;
13048;SDS011;6591;51.446;5.404;2023-03-01T11:44:20;11.13;;;7.93;;
13048;SDS011;6591;51.446;5.404;2023-03-01T11:47:04;9.13;;;6.80;;
13048;SDS011;6591;51.446;5.404;2023-03-01T11:50:08;9.30;;;7.27;;
13048;SDS011;6591;51.446;5.404;2023-03-01T11:55:53;8.53;;;7.00;;
13048;SDS011;6591;51.446;5.404;2023-03-01T12:02:00;10.03;;;7.70;;
13048;SDS011;6591;51.446;5.404;2023-03-01T12:04:32;8.73;;;7.10;;
13048;SDS011;6591;51.446;5.404;2023-03-01T12:08:07;7.10;;;6.40;;
13048;SDS011;6591;51.446;5.404;2023-03-01T12:11:03;7.57;;;6.13;;
13048;SDS011;6591;51.446;5.404;2023-03-01T12:22:51;8.77;;;7.13;;
13048;SDS011;6591;51.446;5.404;2023-03-01T12:29:01;6.73;;;6.00;;
13048;SDS011;6591;51.446;5.404;2023-03-01T12:38:25;7.97;;;6.57;;
13048;SDS011;6591;51.446;5.404;2023-03-01T12:41:22;7.17;;;5.73;;
13048;SDS011;6591;51.446;5.404;2023-03-01T12:49:44;7.10;;;6.40;;
13048;SDS011;6591;51.446;5.404;2023-03-01T12:55:24;7.60;;;5.37;;
13048;SDS011;6591;51.446;5.404;2023-03-01T13:01:08;9.83;;;6.33;;
13048;SDS011;6591;51.446;5.404;2023-03-01T13:09:48;7.30;;;5.53;;
13048;SDS011;6591;51.446;5.404;2023-03-01T13:15:25;7.43;;;6.43;;
13048;SDS011;6591;51.446;5.404;2023-03-01T13:38:57;7.20;;;6.17;;
13048;SDS011;6591;51.446;5.404;2023-03-01T13:52:31;7.27;;;6.13;;
13048;SDS011;6591;51.446;5.404;2023-03-01T14:00:59;8.57;;;6.60;;
13048;SDS011;6591;51.446;5.404;2023-03-01T14:03:29;7.83;;;6.10;;
13048;SDS011;6591;51.446;5.404;2023-03-01T14:06:05;7.80;;;5.80;;
13048;SDS011;6591;51.446;5.404;2023-03-01T14:09:04;8.07;;;6.10;;
13048;SDS011;6591;51.446;5.404;2023-03-01T14:12:01;5.70;;;5.20;;
13048;SDS011;6591;51.446;5.404;2023-03-01T14:15:04;7.37;;;5.87;;
13048;SDS011;6591;51.446;5.404;2023-03-01T14:20:45;7.10;;;5.50;;
13048;SDS011;6591;51.446;5.404;2023-03-01T14:23:19;7.00;;;5.43;;
13048;SDS011;6591;51.446;5.404;2023-03-01T14:25:50;6.77;;;5.33;;
13048;SDS011;6591;51.446;5.404;2023-03-01T14:28:25;8.33;;;6.03;;
13048;SDS011;6591;51.446;5.404;2023-03-01T14:30:56;6.60;;;5.80;;
13048;SDS011;6591;51.446;5.404;2023-03-01T14:33:26;7.47;;;5.70;;
13048;SDS011;6591;51.446;5.404;2023-03-01T14:36:10;7.63;;;5.60;;
13048;SDS011;6591;51.446;5.404;2023-03-01T14:38:40;7.90;;;6.03;;
13048;SDS011;6591;51.446;5.404;2023-03-01T14:41:18;8.37;;;6.00;;
13048;SDS011;6591;51.446;5.404;2023-03-01T14:43:53;7.23;;;5.90;;
13048;SDS011;6591;51.446;5.404;2023-03-01T14:46:27;6.40;;;5.27;;
13048;SDS011;6591;51.446;5.404;2023-03-01T14:49:11;6.67;;;5.37;;
13048;SDS011;6591;51.446;5.404;2023-03-01T14:51:58;6.60;;;5.57;;
13048;SDS011;6591;51.446;5.404;2023-03-01T14:57:15;6.83;;;5.83;;
13048;SDS011;6591;51.446;5.404;2023-03-01T14:59:48;6.77;;;5.40;;
13048;SDS011;6591;51.446;5.404;2023-03-01T15:02:32;7.17;;;5.50;;
13048;SDS011;6591;51.446;5.404;2023-03-01T15:05:02;7.90;;;5.57;;
13048;SDS011;6591;51.446;5.404;2023-03-01T15:07:39;5.80;;;5.20;;
13048;SDS011;6591;51.446;5.404;2023-03-01T15:10:22;5.57;;;4.97;;
13048;SDS011;6591;51.446;5.404;2023-03-01T15:12:53;5.90;;;5.20;;
13048;SDS011;6591;51.446;5.404;2023-03-01T15:17:55;8.17;;;5.00;;
13048;SDS011;6591;51.446;5.404;2023-03-01T15:20:27;7.10;;;5.90;;
13048;SDS011;6591;51.446;5.404;2023-03-01T15:23:00;6.30;;;5.63;;
13048;SDS011;6591;51.446;5.404;2023-03-01T15:25:30;7.73;;;5.70;;
13048;SDS011;6591;51.446;5.404;2023-03-01T15:28:01;6.77;;;6.07;;
13048;SDS011;6591;51.446;5.404;2023-03-01T15:30:31;7.60;;;5.70;;
13048;SDS011;6591;51.446;5.404;2023-03-01T15:33:17;7.33;;;5.90;;
13048;SDS011;6591;51.446;5.404;2023-03-01T15:38:59;7.07;;;5.63;;
13048;SDS011;6591;51.446;5.404;2023-03-01T15:41:29;6.97;;;5.73;;
13048;SDS011;6591;51.446;5.404;2023-03-01T15:50:33;6.97;;;5.20;;
13048;SDS011;6591;51.446;5.404;2023-03-01T15:53:12;9.43;;;5.60;;
13048;SDS011;6591;51.446;5.404;2023-03-01T15:55:41;8.30;;;5.77;;
13048;SDS011;6591;51.446;5.404;2023-03-01T15:58:10;7.70;;;5.80;;
13048;SDS011;6591;51.446;5.404;2023-03-01T16:00:50;9.30;;;5.53;;
13048;SDS011;6591;51.446;5.404;2023-03-01T16:03:27;6.00;;;5.20;;
13048;SDS011;6591;51.446;5.404;2023-03-01T16:05:55;15.30;;;5.27;;
13048;SDS011;6591;51.446;5.404;2023-03-01T16:08:23;5.83;;;5.23;;
13048;SDS011;6591;51.446;5.404;2023-03-01T16:10:50;5.33;;;4.83;;
13048;SDS011;6591;51.446;5.404;2023-03-01T16:13:17;6.83;;;5.80;;
13048;SDS011;6591;51.446;5.404;2023-03-01T16:15:45;6.70;;;5.10;;
13048;SDS011;6591;51.446;5.404;2023-03-01T16:18:13;7.97;;;6.00;;
13048;SDS011;6591;51.446;5.404;2023-03-01T16:20:40;8.27;;;6.00;;
13048;SDS011;6591;51.446;5.404;2023-03-01T16:23:09;6.53;;;5.37;;
13048;SDS011;6591;51.446;5.404;2023-03-01T16:25:38;7.07;;;5.70;;
13048;SDS011;6591;51.446;5.404;2023-03-01T16:28:05;7.53;;;6.37;;
13048;SDS011;6591;51.446;5.404;2023-03-01T16:30:39;6.97;;;6.27;;
13048;SDS011;6591;51.446;5.404;2023-03-01T16:33:07;9.30;;;6.53;;
13048;SDS011;6591;51.446;5.404;2023-03-01T16:35:55;8.20;;;5.90;;
13048;SDS011;6591;51.446;5.404;2023-03-01T16:38:22;8.77;;;6.50;;
13048;SDS011;6591;51.446;5.404;2023-03-01T16:40:49;7.80;;;6.00;;
13048;SDS011;6591;51.446;5.404;2023-03-01T16:43:18;8.87;;;6.83;;
13048;SDS011;6591;51.446;5.404;2023-03-01T16:45:45;7.73;;;6.50;;
13048;SDS011;6591;51.446;5.404;2023-03-01T16:48:13;9.20;;;6.40;;
13048;SDS011;6591;51.446;5.404;2023-03-01T16:50:40;7.30;;;6.03;;
13048;SDS011;6591;51.446;5.404;2023-03-01T16:53:07;7.63;;;6.27;;
13048;SDS011;6591;51.446;5.404;2023-03-01T16:55:36;8.00;;;6.40;;
13048;SDS011;6591;51.446;5.404;2023-03-01T16:58:04;7.03;;;5.73;;
13048;SDS011;6591;51.446;5.404;2023-03-01T17:00:32;9.27;;;6.87;;
13048;SDS011;6591;51.446;5.404;2023-03-01T17:03:01;7.43;;;6.37;;
13048;SDS011;6591;51.446;5.404;2023-03-01T17:05:28;9.47;;;6.83;;
13048;SDS011;6591;51.446;5.404;2023-03-01T17:07:55;7.87;;;6.30;;
13048;SDS011;6591;51.446;5.404;2023-03-01T17:10:24;8.43;;;6.40;;
13048;SDS011;6591;51.446;5.404;2023-03-01T17:12:51;8.50;;;6.57;;
13048;SDS011;6591;51.446;5.404;2023-03-01T17:15:19;11.67;;;6.77;;
13048;SDS011;6591;51.446;5.404;2023-03-01T17:17:46;8.13;;;6.53;;
13048;SDS011;6591;51.446;5.404;2023-03-01T17:20:17;9.50;;;7.10;;
13048;SDS011;6591;51.446;5.404;2023-03-01T17:22:45;8.17;;;6.40;;
13048;SDS011;6591;51.446;5.404;2023-03-01T17:25:12;8.47;;;6.77;;
13048;SDS011;6591;51.446;5.404;2023-03-01T17:27:39;8.13;;;6.97;;
13048;SDS011;6591;51.446;5.404;2023-03-01T17:30:08;9.67;;;6.37;;
13048;SDS011;6591;51.446;5.404;2023-03-01T17:32:37;8.67;;;6.97;;
13048;SDS011;6591;51.446;5.404;2023-03-01T17:35:05;8.70;;;6.93;;
13048;SDS011;6591;51.446;5.404;2023-03-01T17:37:33;8.60;;;7.07;;
13048;SDS011;6591;51.446;5.404;2023-03-01T17:40:04;7.73;;;6.80;;
13048;SDS011;6591;51.446;5.404;2023-03-01T17:42:32;9.27;;;6.57;;
13048;SDS011;6591;51.446;5.404;2023-03-01T17:45:01;8.07;;;7.17;;
13048;SDS011;6591;51.446;5.404;2023-03-01T17:47:28;9.87;;;7.30;;
13048;SDS011;6591;51.446;5.404;2023-03-01T17:49:55;9.80;;;7.57;;
13048;SDS011;6591;51.446;5.404;2023-03-01T17:52:22;10.07;;;7.30;;
13048;SDS011;6591;51.446;5.404;2023-03-01T17:54:49;8.20;;;6.83;;
13048;SDS011;6591;51.446;5.404;2023-03-01T17:57:18;9.90;;;6.30;;
13048;SDS011;6591;51.446;5.404;2023-03-01T17:59:45;8.10;;;6.13;;
13048;SDS011;6591;51.446;5.404;2023-03-01T18:02:12;7.80;;;6.17;;